createdAt,value
2018-09-28T00:01:10.105Z,11.43
2018-09-28T00:03:39.704Z,10.37
2018-09-28T00:06:09.293Z,8.57
2018-09-28T00:08:40.069Z,13.60
2018-09-28T00:11:10.139Z,11.43
2018-09-28T00:13:39.737Z,11.30
2018-09-28T00:16:09.295Z,11.90
2018-09-28T00:18:38.841Z,11.37
2018-09-28T00:21:08.904Z,12.53
2018-09-28T00:23:38.447Z,13.33
2018-09-28T00:26:08.437Z,10.87
2018-09-28T00:28:38.098Z,11.00
2018-09-28T00:31:07.808Z,12.07
2018-09-28T00:33:38.244Z,10.53
2018-09-28T00:36:07.893Z,11.77
2018-09-28T00:38:37.450Z,12.20
2018-09-28T00:41:07.301Z,11.30
2018-09-28T00:43:36.841Z,13.20
2018-09-28T00:46:06.406Z,16.40
2018-09-28T00:48:36.007Z,12.20
2018-09-28T00:51:05.636Z,11.70
2018-09-28T00:53:35.189Z,13.57
2018-09-28T00:56:05.174Z,15.60
2018-09-28T00:58:34.751Z,12.77
2018-09-28T01:01:04.340Z,12.20
2018-09-28T01:03:33.891Z,13.17
2018-09-28T01:06:03.412Z,14.23
2018-09-28T01:08:32.960Z,13.40
2018-09-28T01:11:02.507Z,13.77
2018-09-28T01:13:32.090Z,15.73
2018-09-28T01:16:01.985Z,16.20
2018-09-28T01:18:31.568Z,13.87
2018-09-28T01:21:01.139Z,12.13
2018-09-28T01:23:30.684Z,16.60
2018-09-28T01:26:00.234Z,13.13
2018-09-28T01:28:29.866Z,14.13
2018-09-28T01:30:59.454Z,11.80
2018-09-28T01:33:29.017Z,14.30
2018-09-28T01:35:58.619Z,12.87
2018-09-28T01:38:28.197Z,13.10
2018-09-28T01:40:57.764Z,15.37
2018-09-28T01:43:27.310Z,14.73
2018-09-28T01:45:56.961Z,16.07
2018-09-28T01:48:26.588Z,18.27
2018-09-28T01:50:56.151Z,14.63
2018-09-28T01:53:25.714Z,16.13
2018-09-28T01:55:55.439Z,17.73
2018-09-28T01:58:25.040Z,13.17
2018-09-28T02:00:54.614Z,16.00
2018-09-28T02:03:24.187Z,14.03
2018-09-28T02:05:53.779Z,14.77
2018-09-28T02:08:23.373Z,15.03
2018-09-28T02:10:53.119Z,16.07
2018-09-28T02:13:22.698Z,16.43
2018-09-28T02:15:52.345Z,16.40
2018-09-28T02:18:22.047Z,16.47
2018-09-28T02:20:51.594Z,17.53
2018-09-28T02:23:21.247Z,16.83
2018-09-28T02:25:50.797Z,14.90
2018-09-28T02:28:20.455Z,15.70
2018-09-28T02:30:50.215Z,15.77
2018-09-28T02:33:19.793Z,16.47
2018-09-28T02:35:49.489Z,21.00
2018-09-28T02:38:19.104Z,17.27
2018-09-28T02:40:48.670Z,16.30
2018-09-28T02:43:18.199Z,17.93
2018-09-28T02:45:47.905Z,20.17
2018-09-28T02:48:17.642Z,16.30
2018-09-28T02:50:47.271Z,18.90
2018-09-28T02:53:19.595Z,14.93
2018-09-28T02:55:50.411Z,18.70
2018-09-28T02:58:20.035Z,15.53
2018-09-28T03:00:49.623Z,19.27
2018-09-28T03:03:19.331Z,19.30
2018-09-28T03:05:48.848Z,18.60
2018-09-28T03:08:18.405Z,19.77
2018-09-28T03:10:47.941Z,17.30
2018-09-28T03:13:17.503Z,16.77
2018-09-28T03:15:47.061Z,18.60
2018-09-28T03:18:16.638Z,20.00
2018-09-28T03:20:46.246Z,14.67
2018-09-28T03:23:15.780Z,18.27
2018-09-28T03:25:45.343Z,16.77
2018-09-28T03:28:14.906Z,16.80
2018-09-28T03:30:44.566Z,18.43
2018-09-28T03:33:14.181Z,16.80
2018-09-28T03:35:43.775Z,16.93
2018-09-28T03:38:13.317Z,18.67
2018-09-28T03:40:43.197Z,19.13
2018-09-28T03:43:12.782Z,18.47
2018-09-28T03:45:42.474Z,17.27
2018-09-28T03:48:12.104Z,15.90
2018-09-28T03:50:41.682Z,20.53
2018-09-28T03:53:11.256Z,18.10
2018-09-28T03:55:40.826Z,18.07
2018-09-28T03:58:10.370Z,17.33
2018-09-28T04:00:39.936Z,18.00
2018-09-28T04:03:09.561Z,17.37
2018-09-28T04:05:39.073Z,17.20
2018-09-28T04:08:08.714Z,19.90
2018-09-28T04:10:38.304Z,18.93
2018-09-28T04:13:07.886Z,20.47
2018-09-28T04:15:37.489Z,21.97
2018-09-28T04:18:07.073Z,19.03
2018-09-28T04:20:36.816Z,20.57
2018-09-28T04:23:06.393Z,21.33
2018-09-28T04:25:35.949Z,18.07
2018-09-28T04:28:05.577Z,18.57
2018-09-28T04:30:35.156Z,20.20
2018-09-28T04:33:04.712Z,22.60
2018-09-28T04:35:34.278Z,19.57
2018-09-28T04:38:03.870Z,18.90
2018-09-28T04:40:33.482Z,19.03
2018-09-28T04:43:03.041Z,22.93
2018-09-28T04:45:32.683Z,16.37
2018-09-28T04:48:02.343Z,17.30
2018-09-28T04:50:31.907Z,21.33
2018-09-28T04:53:01.493Z,19.17
2018-09-28T04:55:31.091Z,19.37
2018-09-28T04:58:00.723Z,19.90
2018-09-28T05:00:30.370Z,21.23
2018-09-28T05:03:00.029Z,21.73
2018-09-28T05:05:29.703Z,21.10
2018-09-28T05:07:59.284Z,19.00
2018-09-28T05:10:28.857Z,26.77
2018-09-28T05:12:58.472Z,29.40
2018-09-28T05:15:28.232Z,23.97
2018-09-28T05:17:57.781Z,24.77
2018-09-28T05:20:27.375Z,25.50
2018-09-28T05:22:57.951Z,27.87
2018-09-28T05:25:27.993Z,24.87
2018-09-28T05:27:57.737Z,28.90
2018-09-28T05:30:27.322Z,28.50
2018-09-28T05:32:57.055Z,24.30
2018-09-28T05:35:26.682Z,31.40
2018-09-28T05:37:56.238Z,27.53
2018-09-28T05:40:25.828Z,27.33
2018-09-28T05:42:55.595Z,28.97
2018-09-28T05:45:25.189Z,31.07
2018-09-28T05:47:55.425Z,27.03
2018-09-28T05:50:24.948Z,25.93
2018-09-28T05:52:54.489Z,28.13
2018-09-28T05:55:24.034Z,25.77
2018-09-28T05:57:57.695Z,28.97
2018-09-28T06:00:32.520Z,26.03
2018-09-28T06:03:06.347Z,22.80
2018-09-28T06:05:40.462Z,27.43
2018-09-28T06:08:10.236Z,28.43
2018-09-28T06:10:39.808Z,26.70
2018-09-28T06:13:09.481Z,27.07
2018-09-28T06:15:38.977Z,26.67
2018-09-28T06:18:08.527Z,28.77
2018-09-28T06:20:38.123Z,29.57
2018-09-28T06:23:07.696Z,27.80
2018-09-28T06:25:37.562Z,28.00
2018-09-28T06:28:07.356Z,28.47
2018-09-28T06:30:36.997Z,30.00
2018-09-28T06:33:06.874Z,27.97
2018-09-28T06:35:36.503Z,28.53
2018-09-28T06:38:06.224Z,28.50
2018-09-28T06:40:36.026Z,27.73
2018-09-28T06:43:05.593Z,26.77
2018-09-28T06:45:35.232Z,26.57
2018-09-28T06:48:04.855Z,27.27
2018-09-28T06:53:12.457Z,26.60
2018-09-28T06:55:42.248Z,26.43
2018-09-28T06:58:11.832Z,28.87
2018-09-28T07:00:41.864Z,28.80
2018-09-28T07:03:11.426Z,27.83
2018-09-28T07:05:41.062Z,24.93
2018-09-28T07:08:10.824Z,28.87
2018-09-28T07:10:40.380Z,29.70
2018-09-28T07:13:10.081Z,28.27
2018-09-28T07:15:39.719Z,31.50
2018-09-28T07:18:09.312Z,31.50
2018-09-28T07:20:39.055Z,28.37
2018-09-28T07:23:08.947Z,28.37
2018-09-28T07:25:38.485Z,26.87
2018-09-28T07:28:08.155Z,31.23
2018-09-28T07:30:37.741Z,24.90
2018-09-28T07:33:11.488Z,26.83
2018-09-28T07:35:41.092Z,27.07
2018-09-28T07:38:10.888Z,26.90
2018-09-28T07:40:40.439Z,23.73
2018-09-28T07:43:10.005Z,23.97
2018-09-28T07:45:39.557Z,23.87
2018-09-28T07:48:09.204Z,23.07
2018-09-28T07:50:38.883Z,22.40
2018-09-28T07:53:08.425Z,18.53
2018-09-28T07:55:38.115Z,23.83
2018-09-28T07:58:08.982Z,20.17
2018-09-28T08:00:38.527Z,24.13
2018-09-28T08:03:08.185Z,16.57
2018-09-28T08:05:38.437Z,14.57
2018-09-28T08:08:08.310Z,11.83
2018-09-28T08:10:37.816Z,11.03
2018-09-28T08:13:07.410Z,11.53
2018-09-28T08:15:36.969Z,8.37
2018-09-28T08:18:07.808Z,9.17
2018-09-28T08:20:37.326Z,12.23
2018-09-28T08:23:06.913Z,7.60
2018-09-28T08:25:36.609Z,7.97
2018-09-28T08:28:06.471Z,8.80
2018-09-28T08:30:36.369Z,9.20
2018-09-28T08:33:06.138Z,10.00
2018-09-28T08:35:35.695Z,5.80
2018-09-28T08:38:05.519Z,9.63
2018-09-28T08:40:35.856Z,11.83
2018-09-28T08:43:05.605Z,12.67
2018-09-28T08:45:35.184Z,10.53
2018-09-28T08:48:04.742Z,8.07
2018-09-28T08:50:34.443Z,12.30
2018-09-28T08:53:03.981Z,8.77
2018-09-28T08:55:33.708Z,13.20
2018-09-28T08:58:03.334Z,10.70
2018-09-28T09:00:33.097Z,12.67
2018-09-28T09:03:02.598Z,8.70
2018-09-28T09:05:32.277Z,12.77
2018-09-28T09:08:01.836Z,11.90
2018-09-28T09:10:31.410Z,9.23
2018-09-28T09:13:00.986Z,11.67
2018-09-28T09:15:30.582Z,7.60
2018-09-28T09:18:00.169Z,13.47
2018-09-28T09:20:30.097Z,12.83
2018-09-28T09:22:59.655Z,12.03
2018-09-28T09:25:29.250Z,12.23
2018-09-28T09:27:58.774Z,15.23
2018-09-28T09:30:28.305Z,9.70
2018-09-28T09:32:57.973Z,12.60
2018-09-28T09:35:27.656Z,12.80
2018-09-28T09:37:57.225Z,10.47
2018-09-28T09:40:27.008Z,9.77
2018-09-28T09:42:56.526Z,13.27
2018-09-28T09:45:26.139Z,8.03
2018-09-28T09:47:55.699Z,14.50
2018-09-28T09:50:25.217Z,12.63
2018-09-28T09:52:54.823Z,14.17
2018-09-28T09:55:24.542Z,13.13
2018-09-28T09:57:54.370Z,16.57
2018-09-28T10:00:29.582Z,12.67
2018-09-28T10:03:02.242Z,12.17
2018-09-28T10:05:32.217Z,7.97
2018-09-28T10:08:02.977Z,9.57
2018-09-28T10:10:32.529Z,10.57
2018-09-28T10:13:02.080Z,6.53
2018-09-28T10:15:31.647Z,10.17
2018-09-28T10:18:01.201Z,8.17
2018-09-28T10:20:30.752Z,11.80
2018-09-28T10:23:00.363Z,7.63
2018-09-28T10:25:29.979Z,10.63
2018-09-28T10:28:00.053Z,12.13
2018-09-28T10:30:29.766Z,10.93
2018-09-28T10:32:59.324Z,11.60
2018-09-28T10:35:28.859Z,12.47
2018-09-28T10:37:58.547Z,12.17
2018-09-28T10:40:28.653Z,9.43
2018-09-28T10:42:58.343Z,11.83
2018-09-28T10:45:28.007Z,12.20
2018-09-28T10:47:57.655Z,9.90
2018-09-28T10:50:27.250Z,10.93
2018-09-28T10:52:56.960Z,10.30
2018-09-28T10:55:26.562Z,10.60
2018-09-28T10:57:56.157Z,10.93
2018-09-28T11:00:25.879Z,5.60
2018-09-28T11:02:55.567Z,9.53
2018-09-28T11:05:25.111Z,11.57
2018-09-28T11:07:54.664Z,8.77
2018-09-28T11:10:24.265Z,11.87
2018-09-28T11:12:53.985Z,13.87
2018-09-28T11:15:23.638Z,10.03
2018-09-28T11:17:54.396Z,9.40
2018-09-28T11:20:23.919Z,11.53
2018-09-28T11:22:53.566Z,9.13
2018-09-28T11:25:23.411Z,10.37
2018-09-28T11:27:52.958Z,10.63
2018-09-28T11:30:23.676Z,10.10
2018-09-28T11:32:53.432Z,15.33
2018-09-28T11:35:23.058Z,11.83
2018-09-28T11:37:52.825Z,8.13
2018-09-28T11:40:22.783Z,10.50
2018-09-28T11:42:52.351Z,13.37
2018-09-28T11:45:21.993Z,14.70
2018-09-28T11:47:51.752Z,13.97
2018-09-28T11:50:21.312Z,10.67
2018-09-28T11:52:50.963Z,12.23
2018-09-28T11:55:20.534Z,15.47
2018-09-28T11:57:50.153Z,18.07
2018-09-28T12:00:19.781Z,11.97
2018-09-28T12:02:49.292Z,9.03
2018-09-28T12:05:18.912Z,10.83
2018-09-28T12:07:48.544Z,9.33
2018-09-28T12:10:18.128Z,13.47
2018-09-28T12:12:47.850Z,12.97
2018-09-28T12:15:17.537Z,11.43
2018-09-28T12:17:47.250Z,9.73
2018-09-28T12:20:16.822Z,11.57
2018-09-28T12:22:46.439Z,12.30
2018-09-28T12:25:16.043Z,15.30
2018-09-28T12:27:45.665Z,8.67
2018-09-28T12:30:15.757Z,12.63
2018-09-28T12:32:45.546Z,9.13
2018-09-28T12:35:15.167Z,15.00
2018-09-28T12:37:44.707Z,15.20
2018-09-28T12:40:14.256Z,12.93
2018-09-28T12:42:43.848Z,13.03
2018-09-28T12:45:13.896Z,13.97
2018-09-28T12:47:43.591Z,9.77
2018-09-28T12:50:13.704Z,11.53
2018-09-28T12:52:43.586Z,7.90
2018-09-28T12:55:13.242Z,9.40
2018-09-28T12:57:42.831Z,8.60
2018-09-28T13:00:12.492Z,7.87
2018-09-28T13:02:42.260Z,11.90
2018-09-28T13:05:12.121Z,10.23
2018-09-28T13:07:41.689Z,11.13
2018-09-28T13:10:12.434Z,11.30
2018-09-28T13:12:42.128Z,10.77
2018-09-28T13:15:12.105Z,12.57
2018-09-28T13:17:41.715Z,11.47
2018-09-28T13:20:11.589Z,7.20
2018-09-28T13:22:41.305Z,10.97
2018-09-28T13:25:10.987Z,12.10
2018-09-28T13:27:40.595Z,11.80
2018-09-28T13:30:10.529Z,12.60
2018-09-28T13:32:40.369Z,10.00
2018-09-28T13:35:10.029Z,5.63
2018-09-28T13:37:40.787Z,8.60
2018-09-28T13:40:11.021Z,15.87
2018-09-28T13:42:40.592Z,16.50
2018-09-28T13:45:10.407Z,11.40
2018-09-28T13:47:40.099Z,10.57
2018-09-28T13:50:09.679Z,8.90
2018-09-28T13:52:39.502Z,6.30
2018-09-28T13:55:09.806Z,6.77
2018-09-28T13:57:43.513Z,7.40
2018-09-28T14:00:13.497Z,4.57
2018-09-28T14:02:43.242Z,9.80
2018-09-28T14:05:12.934Z,12.50
2018-09-28T14:07:42.516Z,9.40
2018-09-28T14:10:12.073Z,12.90
2018-09-28T14:12:41.913Z,10.47
2018-09-28T14:15:12.050Z,8.63
2018-09-28T14:17:41.742Z,8.90
2018-09-28T14:20:11.335Z,7.90
2018-09-28T14:22:41.746Z,9.77
2018-09-28T14:25:11.467Z,9.20
2018-09-28T14:27:41.045Z,14.97
2018-09-28T14:30:10.691Z,13.77
2018-09-28T14:32:40.460Z,9.60
2018-09-28T14:35:11.111Z,11.53
2018-09-28T14:37:40.795Z,9.97
2018-09-28T14:40:10.846Z,6.27
2018-09-28T14:42:40.781Z,10.63
2018-09-28T14:45:10.616Z,11.53
2018-09-28T14:47:41.894Z,3.97
2018-09-28T14:50:11.609Z,10.80
2018-09-28T14:52:41.423Z,6.80
2018-09-28T14:55:11.497Z,13.07
2018-09-28T14:57:41.049Z,7.07
2018-09-28T15:00:11.072Z,8.10
2018-09-28T15:02:40.811Z,5.40
2018-09-28T15:05:10.867Z,6.93
2018-09-28T15:07:40.440Z,3.90
2018-09-28T15:10:10.212Z,7.63
2018-09-28T15:12:41.075Z,7.60
2018-09-28T15:15:10.808Z,6.90
2018-09-28T15:17:40.576Z,8.67
2018-09-28T15:20:10.485Z,9.30
2018-09-28T15:22:40.036Z,8.53
2018-09-28T15:25:09.653Z,5.57
2018-09-28T15:27:39.264Z,6.10
2018-09-28T15:30:09.539Z,5.47
2018-09-28T15:32:39.339Z,6.93
2018-09-28T15:35:09.309Z,7.30
2018-09-28T15:37:39.091Z,9.17
2018-09-28T15:40:10.189Z,11.57
2018-09-28T15:42:39.784Z,9.70
2018-09-28T15:45:09.329Z,10.60
2018-09-28T15:47:38.919Z,5.23
2018-09-28T15:50:08.645Z,9.90
2018-09-28T15:52:38.258Z,15.00
2018-09-28T15:55:08.791Z,4.80
2018-09-28T15:57:39.403Z,7.77
2018-09-28T16:00:09.553Z,8.93
2018-09-28T16:02:39.213Z,4.53
2018-09-28T16:05:09.481Z,8.77
2018-09-28T16:07:39.041Z,4.83
2018-09-28T16:10:08.643Z,8.07
2018-09-28T16:12:38.220Z,9.03
2018-09-28T16:15:07.835Z,5.20
2018-09-28T16:17:38.353Z,3.30
2018-09-28T16:20:08.069Z,4.83
2018-09-28T16:22:37.916Z,5.63
2018-09-28T16:25:09.252Z,7.13
2018-09-28T16:27:39.220Z,6.57
2018-09-28T16:30:09.718Z,5.53
2018-09-28T16:32:39.391Z,6.20
2018-09-28T16:35:09.277Z,6.30
2018-09-28T16:37:38.935Z,6.20
2018-09-28T16:40:08.859Z,6.30
2018-09-28T16:42:38.445Z,5.60
2018-09-28T16:45:08.442Z,5.17
2018-09-28T16:47:38.014Z,4.83
2018-09-28T16:50:08.261Z,6.90
2018-09-28T16:52:38.030Z,7.97
2018-09-28T16:55:07.555Z,8.93
2018-09-28T16:57:37.153Z,14.60
2018-09-28T17:00:06.878Z,15.67
2018-09-28T17:02:36.572Z,19.87
2018-09-28T17:05:06.454Z,8.70
2018-09-28T17:07:36.077Z,6.37
2018-09-28T17:10:06.347Z,13.50
2018-09-28T17:12:36.134Z,23.10
2018-09-28T17:15:06.399Z,18.50
2018-09-28T17:17:36.041Z,32.27
2018-09-28T17:20:05.667Z,19.87
2018-09-28T17:22:35.229Z,24.73
2018-09-28T17:25:05.140Z,20.77
2018-09-28T17:27:34.695Z,21.37
2018-09-28T17:30:04.386Z,11.97
2018-09-28T17:32:34.128Z,18.77
2018-09-28T17:35:04.524Z,14.80
2018-09-28T17:37:34.369Z,55.13
2018-09-28T17:40:04.318Z,20.20
2018-09-28T17:42:33.913Z,16.87
2018-09-28T17:45:03.578Z,28.97
2018-09-28T17:47:33.150Z,16.53
2018-09-28T17:50:03.981Z,12.87
2018-09-28T17:52:33.501Z,13.00
2018-09-28T17:55:03.039Z,17.33
2018-09-28T17:57:32.537Z,11.37
2018-09-28T18:00:03.259Z,14.53
2018-09-28T18:02:33.357Z,9.10
2018-09-28T18:05:03.710Z,7.53
2018-09-28T18:07:33.293Z,6.67
2018-09-28T18:10:02.901Z,8.40
2018-09-28T18:12:32.729Z,5.33
2018-09-28T18:15:02.402Z,4.87
2018-09-28T18:17:32.044Z,8.27
2018-09-28T18:20:01.638Z,7.03
2018-09-28T18:22:31.362Z,9.17
2018-09-28T18:25:01.021Z,7.20
2018-09-28T18:27:30.629Z,11.80
2018-09-28T18:30:00.143Z,7.17
2018-09-28T18:32:29.673Z,5.87
2018-09-28T18:34:59.168Z,9.20
2018-09-28T18:37:28.981Z,11.50
2018-09-28T18:39:58.625Z,10.90
2018-09-28T18:42:28.253Z,13.37
2018-09-28T18:44:57.846Z,11.50
2018-09-28T18:47:28.511Z,8.53
2018-09-28T18:49:58.080Z,10.60
2018-09-28T18:52:27.609Z,9.47
2018-09-28T18:54:57.254Z,4.10
2018-09-28T18:57:26.822Z,6.27
2018-09-28T18:59:56.840Z,4.73
2018-09-28T19:02:26.455Z,8.03
2018-09-28T19:04:56.362Z,3.87
2018-09-28T19:07:25.889Z,8.00
2018-09-28T19:09:55.510Z,7.73
2018-09-28T19:12:25.224Z,8.97
2018-09-28T19:14:55.247Z,8.43
2018-09-28T19:17:24.783Z,10.83
2018-09-28T19:19:54.419Z,9.20
2018-09-28T19:22:27.089Z,8.63
2018-09-28T19:24:56.600Z,9.10
2018-09-28T19:27:26.184Z,9.47
2018-09-28T19:29:55.806Z,6.70
2018-09-28T19:32:25.350Z,5.87
2018-09-28T19:34:55.686Z,10.03
2018-09-28T19:37:25.231Z,13.57
2018-09-28T19:39:55.402Z,16.40
2018-09-28T19:42:24.954Z,16.43
2018-09-28T19:44:54.507Z,17.97
2018-09-28T19:47:24.879Z,11.60
2018-09-28T19:49:54.563Z,17.83
2018-09-28T19:52:24.587Z,11.37
2018-09-28T19:54:54.077Z,11.87
2018-09-28T19:57:23.618Z,13.30
2018-09-28T19:59:53.170Z,14.07
2018-09-28T20:02:22.722Z,15.33
2018-09-28T20:04:52.258Z,11.57
2018-09-28T20:07:21.782Z,11.10
2018-09-28T20:09:51.326Z,13.03
2018-09-28T20:12:20.889Z,7.90
2018-09-28T20:14:50.433Z,7.13
2018-09-28T20:17:19.953Z,9.47
2018-09-28T20:19:49.594Z,9.23
2018-09-28T20:22:19.196Z,8.20
2018-09-28T20:24:48.735Z,10.07
2018-09-28T20:27:18.271Z,6.37
2018-09-28T20:29:48.417Z,7.23
2018-09-28T20:32:18.058Z,6.00
2018-09-28T20:34:47.595Z,6.07
2018-09-28T20:37:17.162Z,7.43
2018-09-28T20:39:46.652Z,5.30
2018-09-28T20:42:16.204Z,5.87
2018-09-28T20:44:45.821Z,2.90
2018-09-28T20:47:16.011Z,6.50
2018-09-28T20:49:45.625Z,7.30
2018-09-28T20:52:15.127Z,5.70
2018-09-28T20:54:44.737Z,6.57
2018-09-28T20:57:14.308Z,9.17
2018-09-28T20:59:43.840Z,10.77
2018-09-28T21:02:13.389Z,5.10
2018-09-28T21:04:42.933Z,9.17
2018-09-28T21:07:13.365Z,5.87
2018-09-28T21:09:42.893Z,6.90
2018-09-28T21:12:12.459Z,8.10
2018-09-28T21:14:42.018Z,9.00
2018-09-28T21:17:11.527Z,6.97
2018-09-28T21:19:41.103Z,9.07
2018-09-28T21:22:11.060Z,5.40
2018-09-28T21:24:40.604Z,7.57
2018-09-28T21:27:10.376Z,5.33
2018-09-28T21:29:40.123Z,6.07
2018-09-28T21:32:09.656Z,6.33
2018-09-28T21:34:39.154Z,5.07
2018-09-28T21:37:08.721Z,6.73
2018-09-28T21:39:38.241Z,6.63
2018-09-28T21:42:07.818Z,5.73
2018-09-28T21:44:37.386Z,7.93
2018-09-28T21:47:07.202Z,9.07
2018-09-28T21:49:36.904Z,5.80
2018-09-28T21:52:06.411Z,5.70
2018-09-28T21:54:35.913Z,6.90
2018-09-28T21:57:05.491Z,6.20
2018-09-28T21:59:34.982Z,11.90
2018-09-28T22:02:04.882Z,5.33
2018-09-28T22:04:34.456Z,6.97
2018-09-28T22:07:04.008Z,6.40
2018-09-28T22:09:33.996Z,6.70
2018-09-28T22:12:03.493Z,5.57
2018-09-28T22:14:33.214Z,11.70
2018-09-28T22:17:02.693Z,7.50
2018-09-28T22:19:32.231Z,5.93
2018-09-28T22:22:01.886Z,7.80
2018-09-28T22:24:31.341Z,4.97
2018-09-28T22:27:01.010Z,7.83
2018-09-28T22:29:30.531Z,6.53
2018-09-28T22:32:00.132Z,5.13
2018-09-28T22:34:29.665Z,8.10
2018-09-28T22:36:59.200Z,7.13
2018-09-28T22:39:28.753Z,8.23
2018-09-28T22:41:58.341Z,6.90
2018-09-28T22:44:27.814Z,6.70
2018-09-28T22:46:57.457Z,7.57
2018-09-28T22:49:26.992Z,6.00
2018-09-28T22:51:56.556Z,10.77
2018-09-28T22:54:26.130Z,7.93
2018-09-28T22:56:55.716Z,5.73
2018-09-28T22:59:25.371Z,4.23
2018-09-28T23:01:54.896Z,8.50
2018-09-28T23:04:24.461Z,4.17
2018-09-28T23:06:53.989Z,5.10
2018-09-28T23:09:23.630Z,3.47
2018-09-28T23:11:53.140Z,5.70
2018-09-28T23:14:22.758Z,6.27
2018-09-28T23:16:52.274Z,6.70
2018-09-28T23:19:21.784Z,3.73
2018-09-28T23:21:51.433Z,7.23
2018-09-28T23:24:21.422Z,7.03
2018-09-28T23:26:51.057Z,7.83
2018-09-28T23:29:21.469Z,4.73
2018-09-28T23:31:51.001Z,7.80
2018-09-28T23:34:20.550Z,5.27
2018-09-28T23:36:50.030Z,5.73
2018-09-28T23:39:19.557Z,4.27
2018-09-28T23:41:49.093Z,7.93
2018-09-28T23:44:19.015Z,6.47
2018-09-28T23:46:48.707Z,6.70
2018-09-28T23:49:19.275Z,7.37
2018-09-28T23:51:48.848Z,6.70
2018-09-28T23:54:18.371Z,6.30
2018-09-28T23:56:48.046Z,6.60
2018-09-28T23:59:18.215Z,7.13
